Time;durP1;ratioP1;P1;durP2;ratioP2;P2;SDS_P1;SDS_P2;PMS_P1;PMS_P2;Temp;Humidity;BMP_temperature;BMP_pressure;BME280_temperature;BME280_humidity;BME280_pressure;Samples;Min_cycle;Max_cycle;Signal;HPM_P1;HPM_P2
2022/10/15 00:00:47;;;;;;;39.85;23.30;;;;;;;14.50;70.33;99083.72;10381556;28;20416;-66
2022/10/15 00:05:48;;;;;;;50.22;24.98;;;;;;;14.47;70.36;99090.03;10383132;28;20501;-66
2022/10/15 00:10:50;;;;;;;21.13;15.10;;;;;;;14.41;70.35;99076.63;10381292;28;20062;-67
2022/10/15 00:15:52;;;;;;;37.80;19.42;;;;;;;14.47;70.35;99084.78;10380927;28;20080;-66
2022/10/15 00:20:54;;;;;;;27.20;17.17;;;;;;;14.50;70.42;99084.56;10389143;28;20220;-66
2022/10/15 00:26:01;;;;;;;23.88;14.35;;;;;;;14.54;70.17;99091.19;10389177;28;20300;-66
2022/10/15 00:31:06;;;;;;;198.95;15.70;;;;;;;14.49;70.29;99082.88;10391546;28;20064;-66
2022/10/15 00:36:14;;;;;;;455.25;25.95;;;;;;;14.50;70.16;99079.28;10387757;28;20041;-66
2022/10/15 00:41:20;;;;;;;200.60;16.33;;;;;;;14.47;70.28;99071.63;10387217;28;20045;-66
2022/10/15 00:46:34;;;;;;;112.97;13.05;;;;;;;14.48;70.27;99083.00;10385572;28;20056;-66
2022/10/15 00:51:41;;;;;;;96.20;12.07;;;;;;;14.49;70.25;99085.50;10389939;28;20056;-66
2022/10/15 00:56:44;;;;;;;25.10;10.00;;;;;;;14.55;70.12;99086.78;10387705;28;20041;-66
2022/10/15 01:01:46;;;;;;;24.20;11.65;;;;;;;14.56;69.76;99068.22;10390655;28;20069;-66
2022/10/15 01:06:48;;;;;;;24.35;12.80;;;;;;;14.54;70.08;99069.31;10388977;28;20053;-66
2022/10/15 01:11:53;;;;;;;48.45;10.23;;;;;;;14.52;70.18;99064.19;10387247;28;20049;-66
2022/10/15 01:17:06;;;;;;;692.97;30.25;;;;;;;14.46;70.11;99059.44;10386673;28;20049;-66
2022/10/15 01:22:22;;;;;;;293.67;16.70;;;;;;;14.37;70.09;99054.19;10386636;28;20053;-67
2022/10/15 01:27:40;;;;;;;299.98;16.42;;;;;;;14.25;70.60;99058.72;10384094;28;20056;-66
2022/10/15 01:33:07;;;;;;;67.80;11.80;;;;;;;14.23;70.55;99047.50;10389520;28;20151;-67
2022/10/15 01:38:26;;;;;;;21.30;10.25;;;;;;;14.29;70.66;99052.22;10384489;28;20140;-66
2022/10/15 01:43:57;;;;;;;66.72;15.05;;;;;;;14.30;70.55;99047.78;10386926;28;20385;-66
2022/10/15 01:49:01;;;;;;;;;;;;;;;14.01;71.33;99050.38;10386150;28;20060;-67
2022/10/15 01:54:06;;;;;;;21.77;10.18;;;;;;;14.39;70.38;99039.91;10386367;28;19925;-66
2022/10/15 01:59:09;;;;;;;306.23;18.83;;;;;;;14.46;70.20;99042.81;10373261;28;20061;-66
2022/10/15 02:04:23;;;;;;;53.63;11.82;;;;;;;14.42;70.15;99044.91;10392174;28;20433;-66
2022/10/15 02:09:40;;;;;;;18.80;9.38;;;;;;;14.43;70.18;99058.91;10392436;28;20151;-66
2022/10/15 02:14:54;;;;;;;389.70;17.35;;;;;;;14.40;70.21;99051.28;10393776;28;20060;-66
2022/10/15 02:20:19;;;;;;;464.17;18.45;;;;;;;14.40;70.08;99052.09;10389413;28;20505;-66
2022/10/15 02:25:24;;;;;;;196.90;13.05;;;;;;;14.43;70.02;99038.66;10390181;28;20076;-66
2022/10/15 02:30:27;;;;;;;257.45;13.23;;;;;;;14.44;69.91;99048.22;10423187;28;20060;-66
2022/10/15 02:35:31;;;;;;;304.70;14.43;;;;;;;14.43;70.20;99036.03;10390714;28;20091;-66
2022/10/15 02:40:36;;;;;;;345.98;17.77;;;;;;;14.40;70.06;99036.31;10391832;28;20045;-66
2022/10/15 02:45:38;;;;;;;19.70;8.95;;;;;;;14.38;70.10;99037.41;10390855;28;20057;-66
2022/10/15 02:50:40;;;;;;;14.27;7.43;;;;;;;14.38;70.09;99040.06;10393208;28;20037;-66
2022/10/15 02:55:42;;;;;;;12.88;6.95;;;;;;;14.39;70.48;99039.91;10392453;28;20563;-66
2022/10/15 03:00:44;;;;;;;12.43;7.38;;;;;;;14.43;70.13;99045.75;10391951;28;20529;-66
2022/10/15 03:05:46;;;;;;;15.20;6.60;;;;;;;14.49;69.91;99048.66;10388569;28;20875;-66
2022/10/15 03:10:48;;;;;;;15.10;6.35;;;;;;;14.48;70.21;99061.94;10386081;28;20041;-66
2022/10/15 03:15:49;;;;;;;27.55;7.93;;;;;;;14.46;70.07;99067.34;10384746;28;20049;-66
2022/10/15 03:20:55;;;;;;;141.68;9.57;;;;;;;14.47;69.82;99055.84;10384857;28;20045;-66
2022/10/15 03:25:57;;;;;;;161.52;11.32;;;;;;;14.47;69.62;99058.47;10383631;28;20057;-67
2022/10/15 03:30:59;;;;;;;28.20;7.63;;;;;;;14.44;69.93;99058.75;10384362;28;20734;-66
2022/10/15 03:36:01;;;;;;;17.83;5.07;;;;;;;14.46;69.88;99063.88;10382606;28;20057;-66
2022/10/15 03:41:03;;;;;;;19.05;6.57;;;;;;;14.48;69.70;99070.66;10383250;28;20049;-66
2022/10/15 03:46:05;;;;;;;10.25;4.93;;;;;;;14.43;69.84;99070.22;10384323;28;20049;-66
2022/10/15 03:51:07;;;;;;;8.55;4.32;;;;;;;14.41;70.58;99055.56;10385222;28;20049;-66
2022/10/15 03:56:09;;;;;;;10.82;3.70;;;;;;;14.45;70.13;99057.78;10391172;28;20064;-66
2022/10/15 04:01:15;;;;;;;8.10;4.55;;;;;;;14.46;70.31;99048.94;10393503;28;20049;-66
2022/10/15 04:06:18;;;;;;;11.05;4.80;;;;;;;14.39;70.21;99068.03;10390205;28;20049;-66
2022/10/15 04:11:20;;;;;;;15.27;5.97;;;;;;;14.36;70.83;99063.03;10393012;28;20046;-66
2022/10/15 04:16:22;;;;;;;9.75;4.32;;;;;;;14.23;71.22;99080.84;10387583;28;20313;-66
2022/10/15 04:21:24;;;;;;;5.45;3.05;;;;;;;14.24;70.98;99087.78;10385746;28;20056;-66
2022/10/15 04:26:26;;;;;;;7.35;4.00;;;;;;;14.18;71.29;99072.56;10389259;28;20049;-66
2022/10/15 04:31:28;;;;;;;7.68;4.28;;;;;;;14.29;71.33;99075.88;10392333;28;20057;-66
2022/10/15 04:36:30;;;;;;;8.88;3.47;;;;;;;14.34;71.04;99086.84;10388293;28;20553;-66
2022/10/15 04:41:32;;;;;;;6.00;3.20;;;;;;;14.19;71.51;99090.81;10388782;28;20047;-66
2022/10/15 04:46:34;;;;;;;7.38;3.28;;;;;;;14.20;71.60;99086.41;10374969;28;20052;-66
2022/10/15 04:51:36;;;;;;;6.20;3.13;;;;;;;14.23;71.75;99084.31;10389494;28;20049;-66
2022/10/15 04:56:38;;;;;;;7.90;3.50;;;;;;;14.33;71.74;99076.47;10389641;28;20498;-66
2022/10/15 05:01:40;;;;;;;17.15;5.88;;;;;;;14.41;71.25;99074.81;10386139;28;20527;-66
2022/10/15 05:06:42;;;;;;;14.85;6.45;;;;;;;14.46;70.94;99084.91;10388170;28;20486;-66
2022/10/15 05:11:44;;;;;;;9.18;5.90;;;;;;;14.54;70.83;99087.72;10389368;28;20050;-66
2022/10/15 05:16:46;;;;;;;10.93;4.93;;;;;;;14.44;71.20;99078.97;10390359;28;20128;-66
2022/10/15 05:21:48;;;;;;;11.02;5.13;;;;;;;14.42;71.02;99089.63;10388517;28;20050;-66
2022/10/15 05:26:54;;;;;;;9.27;5.88;;;;;;;14.27;71.38;99103.28;10385437;28;20143;-66
2022/10/15 05:31:56;;;;;;;15.05;7.00;;;;;;;14.25;71.37;99100.78;10387956;28;20041;-66
2022/10/15 05:36:58;;;;;;;9.07;5.10;;;;;;;14.32;71.56;99099.31;10385888;28;20049;-66
2022/10/15 05:42:00;;;;;;;8.73;5.15;;;;;;;14.43;71.18;99096.53;10386573;28;20053;-66
2022/10/15 05:47:02;;;;;;;7.00;3.83;;;;;;;14.51;71.04;99130.13;10389559;28;20049;-66
2022/10/15 05:52:04;;;;;;;256.80;10.65;;;;;;;14.38;70.94;99130.34;10386980;28;20375;-66
2022/10/15 05:57:06;;;;;;;89.57;8.00;;;;;;;14.41;70.92;99134.50;10388458;28;20049;-66
2022/10/15 06:02:14;;;;;;;235.60;13.48;;;;;;;14.46;70.70;99141.00;10384695;28;20049;-66
2022/10/15 06:07:16;;;;;;;11.48;5.55;;;;;;;14.46;70.45;99135.75;10386743;28;20131;-66
2022/10/15 06:12:18;;;;;;;7.97;4.00;;;;;;;14.47;70.81;99134.75;10385614;28;20071;-66
2022/10/15 06:17:20;;;;;;;5.30;3.20;;;;;;;14.54;70.48;99138.56;10384040;28;20379;-67
2022/10/15 06:22:23;;;;;;;9.73;3.90;;;;;;;14.59;70.41;99141.59;10386303;28;20053;-67
2022/10/15 06:27:26;;;;;;;4.35;3.28;;;;;;;14.61;70.48;99145.91;10386067;28;20064;-67
2022/10/15 06:32:27;;;;;;;8.63;4.10;;;;;;;14.69;70.30;99153.97;10383051;28;20056;-66
2022/10/15 06:37:29;;;;;;;9.07;3.40;;;;;;;14.71;70.05;99166.03;10384286;28;20478;-67
2022/10/15 06:42:31;;;;;;;8.50;3.22;;;;;;;14.73;70.04;99157.97;10376487;28;20375;-67
2022/10/15 06:47:33;;;;;;;7.95;3.60;;;;;;;14.80;70.05;99172.28;10385894;28;20721;-67
2022/10/15 06:52:36;;;;;;;5.93;2.85;;;;;;;14.88;69.90;99183.75;10385232;28;20049;-67
2022/10/15 06:57:37;;;;;;;7.68;3.05;;;;;;;14.92;69.91;99186.97;10385851;28;20045;-67
2022/10/15 07:02:39;;;;;;;9.48;3.10;;;;;;;14.82;69.74;99184.31;10385765;28;20424;-67
2022/10/15 07:07:42;;;;;;;7.22;3.80;;;;;;;14.82;70.26;99186.13;10382350;28;20053;-67
2022/10/15 07:12:44;;;;;;;7.03;3.30;;;;;;;14.85;69.93;99178.78;10385113;28;20076;-66
2022/10/15 07:17:51;;;;;;;7.57;3.25;;;;;;;15.10;69.66;99187.97;10372172;28;20506;-66
2022/10/15 07:22:57;;;;;;;9.90;3.60;;;;;;;15.28;69.40;99191.56;10380580;28;20084;-66
2022/10/15 07:27:59;;;;;;;6.93;3.95;;;;;;;15.28;69.05;99194.19;10370838;28;20131;-67
2022/10/15 07:33:01;;;;;;;14.35;4.63;;;;;;;15.16;69.52;99190.84;10381257;28;20041;-67
2022/10/15 07:38:03;;;;;;;9.75;4.57;;;;;;;14.98;70.19;99189.06;10371420;28;20053;-67
2022/10/15 07:43:05;;;;;;;6.13;3.03;;;;;;;15.14;70.14;99197.25;10377487;28;20446;-66
2022/10/15 07:48:07;;;;;;;7.60;4.45;;;;;;;15.38;69.36;99214.31;10371550;28;20068;-67
2022/10/15 07:53:09;;;;;;;7.03;4.10;;;;;;;15.57;69.14;99215.31;10379008;28;20375;-67
2022/10/15 07:58:12;;;;;;;6.68;2.92;;;;;;;15.70;68.43;99208.75;10368378;28;20507;-67
2022/10/15 08:03:14;;;;;;;6.10;3.17;;;;;;;15.91;68.15;99212.06;10378531;28;20057;-73
2022/10/15 08:08:16;;;;;;;6.43;4.15;;;;;;;16.06;67.92;99204.53;10372363;28;20191;-73
2022/10/15 08:13:18;;;;;;;4.90;3.75;;;;;;;16.11;67.71;99208.38;10384040;28;20048;-73
2022/10/15 08:18:20;;;;;;;7.93;3.33;;;;;;;16.05;67.84;99214.22;10365448;28;20052;-74
2022/10/15 08:23:22;;;;;;;6.80;4.10;;;;;;;16.07;67.63;99217.56;10385142;28;20049;-73
2022/10/15 08:28:24;;;;;;;6.35;3.83;;;;;;;16.04;67.92;99207.28;10385838;28;20049;-74
2022/10/15 08:33:29;;;;;;;10.63;5.47;;;;;;;16.09;67.82;99218.25;10385755;28;20061;-73
2022/10/15 08:38:32;;;;;;;12.13;6.03;;;;;;;16.12;68.30;99210.03;10386690;28;20059;-73
2022/10/15 08:43:37;;;;;;;9.00;5.68;;;;;;;16.31;68.03;99224.13;10393296;28;20250;-74
2022/10/15 08:48:48;;;;;;;10.95;6.45;;;;;;;16.64;67.80;99213.88;10392650;28;20053;-72
2022/10/15 08:53:53;;;;;;;;;;;;;;;16.69;66.96;99203.69;10374921;28;20061;-73
2022/10/15 08:59:30;;;;;;;2.70;1.50;;;;;;;17.47;65.54;99208.31;10392404;28;19928;-73
2022/10/15 09:05:09;;;;;;;2.28;1.40;;;;;;;17.94;63.56;99207.97;10391695;28;20061;-73
2022/10/15 09:10:16;;;;;;;6.47;1.90;;;;;;;17.89;64.39;99197.88;10390454;28;20050;-73
2022/10/15 09:15:20;;;;;;;2.08;1.52;;;;;;;18.13;63.84;99207.78;10392132;28;20052;-72
2022/10/15 09:20:33;;;;;;;4.45;1.70;;;;;;;18.37;63.46;99205.28;10391606;28;20049;-72
2022/10/15 09:25:36;;;;;;;3.40;1.50;;;;;;;18.33;62.91;99207.44;10390817;28;20061;-72
2022/10/15 09:30:38;;;;;;;5.13;1.60;;;;;;;18.25;62.90;99212.69;10391315;28;20512;-73
2022/10/15 09:35:52;;;;;;;3.03;1.00;;;;;;;18.20;62.03;99208.84;10390018;28;20140;-72
2022/10/15 09:41:28;;;;;;;1.42;1.10;;;;;;;18.33;62.46;99196.00;10389426;28;20064;-73
2022/10/15 09:46:30;;;;;;;2.53;1.00;;;;;;;18.67;61.49;99196.78;10377971;28;20060;-72
2022/10/15 09:51:45;;;;;;;4.07;1.00;;;;;;;18.89;61.03;99198.03;10375680;28;20413;-72
2022/10/15 09:56:54;;;;;;;4.72;1.20;;;;;;;18.81;61.33;99201.47;10382723;28;20402;-72
2022/10/15 10:02:02;;;;;;;7.23;1.17;;;;;;;18.76;61.56;99197.66;10382049;28;20517;-72
2022/10/15 10:07:07;;;;;;;2.65;1.00;;;;;;;18.54;62.09;99199.09;10381849;28;20136;-72
2022/10/15 10:12:19;;;;;;;3.67;1.20;;;;;;;18.60;61.79;99196.63;10386960;28;20125;-72
2022/10/15 10:17:24;;;;;;;2.10;1.02;;;;;;;18.58;62.29;99195.94;10382367;28;20278;-72
2022/10/15 10:22:26;;;;;;;3.10;1.00;;;;;;;18.59;61.94;99196.78;10385202;28;20069;-72
2022/10/15 10:27:29;;;;;;;2.88;1.10;;;;;;;18.77;61.90;99192.19;10381347;28;20053;-72
2022/10/15 10:32:34;;;;;;;2.75;0.70;;;;;;;18.71;60.94;99200.78;10367131;28;20045;-72
2022/10/15 10:37:42;;;;;;;4.90;1.13;;;;;;;18.48;61.56;99199.72;10381188;28;20053;-72
2022/10/15 10:42:45;;;;;;;3.13;1.00;;;;;;;18.56;61.71;99194.47;10387755;28;20052;-72
2022/10/15 10:47:47;;;;;;;1.50;0.98;;;;;;;18.44;61.36;99190.44;10370257;28;20468;-72
2022/10/15 10:52:48;;;;;;;3.65;1.20;;;;;;;18.58;62.14;99177.41;10383628;28;20056;-72
2022/10/15 10:57:56;;;;;;;2.58;0.98;;;;;;;18.46;61.40;99169.94;10380193;28;20490;-72
2022/10/15 11:02:58;;;;;;;3.67;1.00;;;;;;;18.77;61.46;99163.06;10382736;28;20531;-72
2022/10/15 11:08:18;;;;;;;4.60;0.90;;;;;;;18.74;61.66;99160.75;10381546;28;20049;-72
2022/10/15 11:13:23;;;;;;;2.40;1.00;;;;;;;18.79;61.44;99153.13;10384491;28;20067;-72
2022/10/15 11:18:47;;;;;;;1.27;0.90;;;;;;;18.92;60.49;99145.53;10380577;28;20120;-72
2022/10/15 11:24:09;;;;;;;2.25;0.93;;;;;;;19.04;60.04;99146.06;10383766;28;20416;-72
2022/10/15 11:29:33;;;;;;;1.55;1.08;;;;;;;19.02;60.41;99138.28;10380703;28;20092;-72
2022/10/15 11:34:54;;;;;;;2.58;1.00;;;;;;;19.08;60.35;99137.63;10385422;28;20045;-72
2022/10/15 11:40:12;;;;;;;3.35;1.13;;;;;;;19.50;59.57;99134.00;10377228;28;20089;-72
2022/10/15 11:45:14;;;;;;;1.67;1.10;;;;;;;19.21;59.88;99143.28;10383182;28;20055;-71
2022/10/15 11:50:21;;;;;;;1.80;1.15;;;;;;;19.04;60.07;99146.06;10377840;28;20076;-72
2022/10/15 11:55:47;;;;;;;5.13;1.30;;;;;;;18.84;60.25;99129.63;10380216;28;20049;-72
2022/10/15 12:00:54;;;;;;;4.88;1.20;;;;;;;18.86;60.81;99125.00;10367475;28;20060;-72
2022/10/15 12:06:08;;;;;;;2.45;1.20;;;;;;;18.85;61.44;99122.53;10386933;28;20058;-72
2022/10/15 12:11:29;;;;;;;5.22;1.25;;;;;;;18.81;61.37;99107.94;10384684;28;20140;-72
2022/10/15 12:16:38;;;;;;;5.18;1.20;;;;;;;18.75;61.26;99109.41;10394617;28;20049;-72
2022/10/15 12:21:43;;;;;;;2.40;1.30;;;;;;;18.67;61.21;99104.09;10393483;28;20437;-72
2022/10/15 12:26:45;;;;;;;2.75;1.35;;;;;;;18.59;61.65;99091.66;10393944;28;20056;-72
2022/10/15 12:31:51;;;;;;;2.92;1.38;;;;;;;18.42;62.39;99094.47;10393292;28;20061;-72
2022/10/15 12:37:15;;;;;;;1.90;1.27;;;;;;;18.41;63.01;99101.56;10393137;28;20053;-72
2022/10/15 12:42:25;;;;;;;6.63;1.70;;;;;;;18.37;63.43;99094.09;10394024;28;20057;-72
2022/10/15 12:48:12;;;;;;;3.80;1.50;;;;;;;18.25;63.39;99092.72;10392081;28;20469;-72
2022/10/15 12:53:33;;;;;;;4.47;1.50;;;;;;;18.18;63.15;99094.34;10388399;28;20060;-72
2022/10/15 12:58:35;;;;;;;;;;;;;;;18.13;63.41;99094.81;10391985;28;20136;-72
2022/10/15 13:03:49;;;;;;;5.00;1.40;;;;;;;18.45;63.46;99084.38;10391769;28;19929;-72
2022/10/15 13:09:19;;;;;;;2.28;1.20;;;;;;;18.51;62.89;99088.16;10378900;28;20794;-72
2022/10/15 13:14:28;;;;;;;3.20;1.08;;;;;;;18.40;63.11;99105.19;10385600;28;20470;-72
2022/10/15 13:19:35;;;;;;;1.13;0.90;;;;;;;18.37;63.09;99083.50;10381314;28;20041;-72
2022/10/15 13:24:44;;;;;;;3.13;1.13;;;;;;;18.38;62.27;99096.56;10384536;28;20065;-72
2022/10/15 13:30:08;;;;;;;0.50;0.50;;;;;;;18.22;62.11;99098.38;10380798;28;20255;-71
2022/10/15 13:35:16;;;;;;;2.30;0.68;;;;;;;18.31;62.04;99081.50;10381539;28;20049;-72
2022/10/15 13:40:25;;;;;;;1.52;0.52;;;;;;;18.47;61.86;99086.84;10388692;28;20055;-72
2022/10/15 13:45:28;;;;;;;1.45;0.57;;;;;;;18.60;61.60;99080.09;10382340;28;20053;-72
2022/10/15 13:50:35;;;;;;;3.92;1.00;;;;;;;18.53;61.87;99094.13;10387942;28;20057;-72
2022/10/15 13:55:42;;;;;;;1.30;0.82;;;;;;;18.48;62.07;99101.75;10379562;28;20143;-72
2022/10/15 14:01:06;;;;;;;1.65;0.82;;;;;;;18.51;62.56;99104.06;10384535;28;20049;-72
2022/10/15 14:06:23;;;;;;;0.90;0.77;;;;;;;18.75;62.38;99092.69;10380277;28;20140;-72
2022/10/15 14:11:28;;;;;;;1.50;0.90;;;;;;;19.03;61.80;99094.09;10381343;28;20045;-71
2022/10/15 14:16:40;;;;;;;3.30;0.70;;;;;;;18.95;61.79;99094.03;10395805;28;20049;-71
2022/10/15 14:21:47;;;;;;;0.85;0.50;;;;;;;18.94;61.29;99100.31;10386861;28;20140;-71
2022/10/15 14:26:49;;;;;;;0.98;0.77;;;;;;;18.89;61.62;99092.06;10381834;28;20304;-72
2022/10/15 14:31:52;;;;;;;1.55;0.63;;;;;;;18.74;61.52;99081.28;10368833;28;20103;-71
2022/10/15 14:36:54;;;;;;;1.95;0.82;;;;;;;18.71;61.98;99084.22;10375799;28;20052;-71
2022/10/15 14:42:01;;;;;;;1.83;0.60;;;;;;;18.76;61.66;99092.53;10386792;28;20049;-71
2022/10/15 14:47:03;;;;;;;3.10;0.80;;;;;;;18.76;62.06;99091.69;10380757;28;20053;-71
2022/10/15 14:52:13;;;;;;;2.33;0.60;;;;;;;18.58;62.08;99100.59;10386928;28;20068;-71
2022/10/15 14:57:22;;;;;;;1.08;0.50;;;;;;;18.27;62.20;99102.19;10381921;28;20053;-71
2022/10/15 15:02:27;;;;;;;2.05;0.70;;;;;;;18.10;63.19;99103.06;10379383;28;20064;-72
2022/10/15 15:07:29;;;;;;;1.48;0.70;;;;;;;18.06;63.20;99101.72;10380138;28;20098;-71
2022/10/15 15:12:32;;;;;;;3.53;2.33;;;;;;;18.03;63.29;99114.44;10386439;28;20052;-71
2022/10/15 15:17:34;;;;;;;6.95;4.10;;;;;;;18.02;63.32;99120.72;10379602;28;20343;-71
2022/10/15 15:22:38;;;;;;;6.75;2.65;;;;;;;17.94;63.81;99118.88;10383814;28;20204;-72
2022/10/15 15:27:39;;;;;;;2.65;1.60;;;;;;;17.89;63.87;99120.34;10380691;28;20097;-71
2022/10/15 15:32:41;;;;;;;12.52;4.78;;;;;;;17.80;64.62;99122.94;10385032;28;20057;-72
2022/10/15 15:37:43;;;;;;;3.25;1.40;;;;;;;17.87;64.08;99125.78;10380433;28;20068;-72
2022/10/15 15:42:46;;;;;;;3.85;1.08;;;;;;;17.79;64.41;99118.63;10384412;28;20076;-71
2022/10/15 15:47:48;;;;;;;4.63;1.60;;;;;;;17.85;64.33;99120.63;10378369;28;20532;-71
2022/10/15 15:52:50;;;;;;;4.93;1.30;;;;;;;17.80;64.15;99117.66;10384614;28;20053;-72
2022/10/15 15:57:52;;;;;;;2.00;0.90;;;;;;;17.78;64.11;99116.97;10379768;28;21924;-72
2022/10/15 16:02:54;;;;;;;4.82;1.05;;;;;;;17.83;64.99;99122.59;10376971;28;20056;-72
2022/10/15 16:07:58;;;;;;;4.55;1.50;;;;;;;17.73;64.74;99132.47;10378256;28;20057;-72
2022/10/15 16:13:01;;;;;;;4.40;1.50;;;;;;;17.60;65.01;99126.78;10384644;28;20286;-71
2022/10/15 16:18:03;;;;;;;5.45;1.40;;;;;;;17.54;65.42;99143.25;10379609;28;20176;-71
2022/10/15 16:23:05;;;;;;;3.95;1.80;;;;;;;17.37;65.72;99154.69;10381027;28;20041;-72
2022/10/15 16:28:07;;;;;;;3.05;1.70;;;;;;;17.37;65.95;99152.03;10377381;28;20057;-71
2022/10/15 16:33:09;;;;;;;3.60;2.20;;;;;;;17.42;65.56;99172.75;10383511;28;20049;-71
2022/10/15 16:38:11;;;;;;;2.67;1.17;;;;;;;17.45;65.51;99175.06;10379823;28;20096;-71
2022/10/15 16:43:13;;;;;;;1.95;0.90;;;;;;;17.41;65.81;99185.13;10379754;28;20381;-72
2022/10/15 16:48:15;;;;;;;5.47;1.02;;;;;;;17.35;66.09;99184.91;10374802;28;20146;-72
2022/10/15 16:53:17;;;;;;;4.30;1.00;;;;;;;17.27;66.19;99192.72;10381230;28;20141;-72
2022/10/15 16:58:19;;;;;;;4.68;1.05;;;;;;;17.12;66.64;99196.88;10379295;28;20450;-72
2022/10/15 17:03:21;;;;;;;7.70;1.20;;;;;;;17.03;66.89;99214.47;10388881;28;20061;-72
2022/10/15 17:08:26;;;;;;;5.75;1.00;;;;;;;17.03;66.94;99222.41;10385066;28;20144;-72
2022/10/15 17:13:32;;;;;;;5.40;1.08;;;;;;;17.10;66.78;99225.28;10389409;28;20057;-72
2022/10/15 17:18:35;;;;;;;8.35;1.20;;;;;;;17.11;67.36;99224.28;10383799;28;20055;-71
2022/10/15 17:23:37;;;;;;;11.77;1.95;;;;;;;17.12;67.43;99233.88;10385037;28;20083;-72
2022/10/15 17:28:39;;;;;;;9.32;1.70;;;;;;;17.06;67.06;99226.56;10383229;28;20057;-72
2022/10/15 17:33:43;;;;;;;4.72;1.58;;;;;;;16.94;67.50;99247.88;10389355;28;20148;-72
2022/10/15 17:38:45;;;;;;;4.00;1.67;;;;;;;16.90;67.16;99248.31;10383985;28;20363;-72
2022/10/15 17:43:48;;;;;;;2.85;0.98;;;;;;;16.82;67.27;99254.34;10388447;28;20417;-72
2022/10/15 17:48:51;;;;;;;3.58;0.98;;;;;;;16.77;67.22;99261.06;10383593;28;20051;-72
2022/10/15 17:53:53;;;;;;;3.97;1.00;;;;;;;16.68;67.20;99261.94;10388249;28;20108;-72
2022/10/15 17:59:00;;;;;;;4.32;1.60;;;;;;;16.59;67.45;99276.03;10382436;28;20622;-74
2022/10/15 18:04:02;;;;;;;1.48;1.10;;;;;;;16.60;67.60;99278.50;10387040;28;20049;-65
2022/10/15 18:09:04;;;;;;;2.83;1.00;;;;;;;16.56;67.52;99271.84;10388259;28;20131;-65
2022/10/15 18:14:06;;;;;;;5.43;1.20;;;;;;;16.47;67.80;99272.72;10389639;28;20103;-65
2022/10/15 18:19:09;;;;;;;3.22;1.00;;;;;;;16.42;67.96;99279.38;10387621;28;20080;-65
2022/10/15 18:24:13;;;;;;;1.77;0.82;;;;;;;16.34;68.46;99288.03;10420636;28;20424;-65
2022/10/15 18:29:15;;;;;;;2.10;1.20;;;;;;;16.32;68.25;99291.78;10388362;28;20077;-65
2022/10/15 18:34:17;;;;;;;1.35;1.00;;;;;;;16.25;68.65;99302.06;10388020;28;20567;-65
2022/10/15 18:39:19;;;;;;;2.85;0.90;;;;;;;16.17;68.75;99313.31;10388358;28;20053;-65
2022/10/15 18:44:22;;;;;;;2.70;1.00;;;;;;;16.08;68.79;99314.16;10388746;28;20052;-65
2022/10/15 18:49:24;;;;;;;1.52;1.00;;;;;;;16.08;68.72;99316.81;10387393;28;20160;-65
2022/10/15 18:54:26;;;;;;;1.08;0.88;;;;;;;15.98;68.96;99331.81;10386931;28;20493;-65
2022/10/15 18:59:28;;;;;;;4.15;1.08;;;;;;;15.91;69.18;99322.81;10370988;28;20348;-65
2022/10/15 19:04:29;;;;;;;7.70;1.33;;;;;;;15.88;69.17;99330.97;10384412;28;20107;-66
2022/10/15 19:09:33;;;;;;;4.28;1.25;;;;;;;15.83;69.49;99322.69;10386543;28;20072;-66
2022/10/15 19:14:35;;;;;;;1.90;1.13;;;;;;;15.79;69.42;99326.56;10388133;28;20107;-66
2022/10/15 19:19:37;;;;;;;3.15;1.10;;;;;;;15.71;69.39;99328.22;10387450;28;20049;-65
2022/10/15 19:24:39;;;;;;;5.28;1.20;;;;;;;15.63;70.05;99341.25;10385281;28;20061;-65
2022/10/15 19:29:41;;;;;;;5.60;1.40;;;;;;;15.58;69.42;99336.38;10385339;28;20580;-66
2022/10/15 19:34:43;;;;;;;3.75;1.50;;;;;;;15.50;69.85;99323.06;10385298;28;20465;-66
2022/10/15 19:39:47;;;;;;;9.20;2.53;;;;;;;15.34;69.80;99331.50;10385667;28;20081;-66
2022/10/15 19:44:49;;;;;;;7.63;2.70;;;;;;;15.29;69.97;99357.38;10386264;28;20055;-65
2022/10/15 19:49:50;;;;;;;4.60;1.70;;;;;;;15.23;70.44;99365.00;10385679;28;20060;-66
2022/10/15 19:54:53;;;;;;;4.88;1.70;;;;;;;15.25;70.24;99360.44;10385835;28;20069;-66
2022/10/15 19:59:54;;;;;;;8.65;2.20;;;;;;;15.24;70.11;99369.31;10384325;28;20295;-65
2022/10/15 20:04:56;;;;;;;5.45;1.92;;;;;;;15.16;70.25;99380.50;10383656;28;20081;-66
2022/10/15 20:09:58;;;;;;;10.30;1.90;;;;;;;15.18;70.51;99375.13;10383304;28;20059;-65
2022/10/15 20:15:00;;;;;;;6.38;2.50;;;;;;;15.21;70.44;99380.94;10384806;28;20490;-66
2022/10/15 20:20:03;;;;;;;7.38;2.70;;;;;;;15.29;70.34;99381.09;10382908;28;20049;-66
2022/10/15 20:25:05;;;;;;;7.90;2.30;;;;;;;15.39;70.13;99378.47;10384836;28;20045;-66
2022/10/15 20:30:07;;;;;;;8.73;2.85;;;;;;;15.39;69.70;99397.78;10383465;28;20386;-66
2022/10/15 20:35:09;;;;;;;19.85;6.38;;;;;;;15.24;69.78;99416.72;10385251;28;20134;-66
2022/10/15 20:40:12;;;;;;;12.95;2.50;;;;;;;15.23;70.16;99430.84;10392560;28;20163;-66
2022/10/15 20:45:14;;;;;;;11.40;3.15;;;;;;;15.35;69.90;99435.91;10392702;28;20052;-66
2022/10/15 20:50:24;;;;;;;5.82;1.85;;;;;;;15.49;69.74;99421.53;10391007;28;20171;-66
2022/10/15 20:55:27;;;;;;;7.17;2.20;;;;;;;15.51;69.49;99434.59;10391815;28;20045;-66
2022/10/15 21:00:29;;;;;;;5.32;1.90;;;;;;;15.59;69.31;99430.28;10391672;28;20058;-66
2022/10/15 21:05:31;;;;;;;7.78;1.90;;;;;;;15.68;69.10;99436.56;10389816;28;20096;-65
2022/10/15 21:10:33;;;;;;;10.70;3.17;;;;;;;15.68;69.09;99442.69;10391308;28;20099;-66
2022/10/15 21:15:35;;;;;;;7.13;3.20;;;;;;;15.60;68.51;99447.78;10390787;28;20053;-66
2022/10/15 21:20:36;;;;;;;5.80;2.10;;;;;;;15.45;69.10;99441.19;10391304;28;20159;-66
2022/10/15 21:25:38;;;;;;;8.30;2.78;;;;;;;15.33;68.90;99452.78;10388037;28;20089;-65
2022/10/15 21:30:40;;;;;;;5.97;2.28;;;;;;;15.26;69.31;99457.78;10389554;28;20049;-66
2022/10/15 21:35:42;;;;;;;9.60;2.30;;;;;;;15.22;69.21;99445.00;10388951;28;20119;-66
2022/10/15 21:40:48;;;;;;;4.68;2.00;;;;;;;15.18;69.22;99454.97;10388121;28;20445;-66
2022/10/15 21:45:50;;;;;;;5.97;2.10;;;;;;;15.11;69.19;99482.78;10388343;28;20084;-66
2022/10/15 21:50:52;;;;;;;4.55;2.22;;;;;;;15.06;69.15;99492.88;10389409;28;20545;-66
2022/10/15 21:55:54;;;;;;;6.90;2.10;;;;;;;15.00;69.40;99484.69;10389698;28;20057;-66
2022/10/15 22:00:56;;;;;;;7.53;2.85;;;;;;;14.93;69.46;99489.63;10387615;28;20731;-66
2022/10/15 22:05:58;;;;;;;7.75;2.70;;;;;;;14.93;69.68;99494.91;10370977;28;20090;-66
2022/10/15 22:11:13;;;;;;;10.98;5.35;;;;;;;14.82;69.59;99494.94;10387165;28;20060;-66
2022/10/15 22:16:16;;;;;;;5.78;2.90;;;;;;;14.79;69.71;99494.38;10382019;28;20779;-66
2022/10/15 22:21:27;;;;;;;16.50;2.92;;;;;;;14.62;69.35;99497.56;10386371;28;20088;-66
2022/10/15 22:26:32;;;;;;;10.50;2.30;;;;;;;14.51;69.66;99509.84;10386183;28;20324;-65
2022/10/15 22:31:34;;;;;;;8.98;2.40;;;;;;;14.43;70.03;99509.59;10386310;28;20049;-65
2022/10/15 22:36:36;;;;;;;13.77;4.72;;;;;;;14.36;70.08;99516.34;10386913;28;20045;-65
2022/10/15 22:41:40;;;;;;;21.35;9.25;;;;;;;14.35;69.97;99511.22;10375814;28;20057;-65
2022/10/15 22:46:45;;;;;;;8.95;2.42;;;;;;;14.32;70.11;99516.69;10385043;28;20110;-65
2022/10/15 22:51:48;;;;;;;7.25;2.33;;;;;;;14.30;70.32;99523.88;10384103;28;20550;-65
2022/10/15 22:56:50;;;;;;;7.10;2.42;;;;;;;14.29;70.31;99516.94;10385543;28;20667;-65
2022/10/15 23:01:52;;;;;;;9.32;2.20;;;;;;;14.31;70.21;99509.75;10384306;28;20387;-65
2022/10/15 23:06:54;;;;;;;7.07;2.33;;;;;;;14.37;69.91;99523.25;10385399;28;20048;-65
2022/10/15 23:11:56;;;;;;;7.38;2.10;;;;;;;14.38;70.32;99532.84;10383818;28;20339;-65
2022/10/15 23:16:57;;;;;;;9.02;2.20;;;;;;;14.29;70.34;99553.75;10384561;28;20107;-65
2022/10/15 23:22:02;;;;;;;11.27;2.67;;;;;;;14.11;70.74;99532.44;10380325;28;20049;-65
2022/10/15 23:27:04;;;;;;;5.95;2.20;;;;;;;13.98;70.64;99544.06;10377892;28;20099;-66
2022/10/15 23:32:06;;;;;;;9.23;2.63;;;;;;;13.96;70.54;99531.03;10381089;28;20052;-65